sensor_id;sensor_type;location;lat;lon;timestamp;pressure;altitude;pressure_sealevel;temperature;humidity
68179;BME280;69812;42.632;23.440;2024-02-04T00:00:43;95521.19;;;-0.23;84.45
68179;BME280;69812;42.632;23.440;2024-02-04T00:03:12;95523.47;;;-0.39;84.13
68179;BME280;69812;42.632;23.440;2024-02-04T00:05:37;95524.22;;;-0.37;84.17
68179;BME280;69812;42.632;23.440;2024-02-04T00:08:03;95543.72;;;-0.40;84.17
68179;BME280;69812;42.632;23.440;2024-02-04T00:10:28;95511.50;;;-0.34;84.59
68179;BME280;69812;42.632;23.440;2024-02-04T00:12:54;95518.94;;;-0.31;84.45
68179;BME280;69812;42.632;23.440;2024-02-04T00:15:20;95531.28;;;-0.23;84.41
68179;BME280;69812;42.632;23.440;2024-02-04T00:17:45;95530.47;;;-0.24;84.02
68179;BME280;69812;42.632;23.440;2024-02-04T00:20:11;95523.41;;;-0.15;84.29
68179;BME280;69812;42.632;23.440;2024-02-04T00:22:36;95523.00;;;-0.27;84.35
68179;BME280;69812;42.632;23.440;2024-02-04T00:25:02;95527.69;;;-0.39;83.95
68179;BME280;69812;42.632;23.440;2024-02-04T00:27:33;95525.72;;;-0.55;85.20
68179;BME280;69812;42.632;23.440;2024-02-04T00:29:59;95519.69;;;-0.51;86.52
68179;BME280;69812;42.632;23.440;2024-02-04T00:32:26;95515.47;;;-0.50;86.56
68179;BME280;69812;42.632;23.440;2024-02-04T00:34:52;95515.44;;;-0.27;87.93
68179;BME280;69812;42.632;23.440;2024-02-04T00:37:18;95530.97;;;0.29;87.53
68179;BME280;69812;42.632;23.440;2024-02-04T00:39:43;95528.44;;;0.90;86.22
68179;BME280;69812;42.632;23.440;2024-02-04T00:42:09;95521.97;;;1.22;84.50
68179;BME280;69812;42.632;23.440;2024-02-04T00:44:35;95535.84;;;1.14;81.36
68179;BME280;69812;42.632;23.440;2024-02-04T00:47:01;95507.63;;;1.42;83.04
68179;BME280;69812;42.632;23.440;2024-02-04T00:49:26;95507.53;;;1.62;82.30
68179;BME280;69812;42.632;23.440;2024-02-04T00:51:54;95513.34;;;1.83;80.94
68179;BME280;69812;42.632;23.440;2024-02-04T00:54:22;95517.53;;;1.84;79.84
68179;BME280;69812;42.632;23.440;2024-02-04T00:56:48;95526.75;;;1.85;79.93
68179;BME280;69812;42.632;23.440;2024-02-04T00:59:13;95519.97;;;2.40;81.44
68179;BME280;69812;42.632;23.440;2024-02-04T01:01:41;95514.78;;;2.60;81.02
68179;BME280;69812;42.632;23.440;2024-02-04T01:04:09;95509.28;;;3.19;78.61
68179;BME280;69812;42.632;23.440;2024-02-04T01:06:35;95496.94;;;3.44;77.62
68179;BME280;69812;42.632;23.440;2024-02-04T01:09:00;95502.69;;;3.80;77.49
68179;BME280;69812;42.632;23.440;2024-02-04T01:11:26;95507.47;;;4.16;75.04
68179;BME280;69812;42.632;23.440;2024-02-04T01:13:51;95514.38;;;3.66;71.17
68179;BME280;69812;42.632;23.440;2024-02-04T01:16:17;95515.31;;;2.83;72.89
68179;BME280;69812;42.632;23.440;2024-02-04T01:18:42;95505.22;;;2.31;74.75
68179;BME280;69812;42.632;23.440;2024-02-04T01:21:07;95520.47;;;2.12;75.79
68179;BME280;69812;42.632;23.440;2024-02-04T01:23:34;95516.47;;;1.89;77.08
68179;BME280;69812;42.632;23.440;2024-02-04T01:25:59;95523.41;;;1.85;77.46
68179;BME280;69812;42.632;23.440;2024-02-04T01:28:25;95514.91;;;1.50;78.71
68179;BME280;69812;42.632;23.440;2024-02-04T01:30:50;95520.13;;;1.45;79.12
68179;BME280;69812;42.632;23.440;2024-02-04T01:33:16;95494.19;;;1.22;79.21
68179;BME280;69812;42.632;23.440;2024-02-04T01:35:41;95513.03;;;1.15;80.26
68179;BME280;69812;42.632;23.440;2024-02-04T01:38:07;95515.28;;;1.02;80.96
68179;BME280;69812;42.632;23.440;2024-02-04T01:40:33;95502.44;;;0.87;81.38
68179;BME280;69812;42.632;23.440;2024-02-04T01:43:01;95498.56;;;0.79;82.14
68179;BME280;69812;42.632;23.440;2024-02-04T01:45:26;95501.69;;;0.66;83.02
68179;BME280;69812;42.632;23.440;2024-02-04T01:47:52;95491.19;;;0.54;84.24
68179;BME280;69812;42.632;23.440;2024-02-04T01:50:18;95496.50;;;0.48;84.31
68179;BME280;69812;42.632;23.440;2024-02-04T01:52:44;95482.13;;;0.50;85.90
68179;BME280;69812;42.632;23.440;2024-02-04T01:55:10;95486.31;;;1.10;86.83
68179;BME280;69812;42.632;23.440;2024-02-04T01:57:36;95486.53;;;1.24;85.63
68179;BME280;69812;42.632;23.440;2024-02-04T02:00:03;95495.97;;;1.39;85.78
68179;BME280;69812;42.632;23.440;2024-02-04T02:02:34;95498.38;;;1.60;84.94
68179;BME280;69812;42.632;23.440;2024-02-04T02:04:59;95488.53;;;1.54;84.64
68179;BME280;69812;42.632;23.440;2024-02-04T02:07:25;95487.09;;;2.03;83.60
68179;BME280;69812;42.632;23.440;2024-02-04T02:09:52;95474.59;;;2.18;82.76
68179;BME280;69812;42.632;23.440;2024-02-04T02:12:24;95486.91;;;2.94;81.64
68179;BME280;69812;42.632;23.440;2024-02-04T02:14:58;95481.38;;;3.19;79.27
68179;BME280;69812;42.632;23.440;2024-02-04T02:17:42;95484.84;;;3.49;80.18
68179;BME280;69812;42.632;23.440;2024-02-04T02:20:21;95476.97;;;4.16;77.90
68179;BME280;69812;42.632;23.440;2024-02-04T02:22:51;95476.72;;;4.51;76.97
68179;BME280;69812;42.632;23.440;2024-02-04T02:25:26;95465.59;;;4.97;76.17
68179;BME280;69812;42.632;23.440;2024-02-04T02:27:52;95454.59;;;5.10;75.20
68179;BME280;69812;42.632;23.440;2024-02-04T02:30:18;95470.03;;;5.36;74.19
68179;BME280;69812;42.632;23.440;2024-02-04T02:32:47;95451.06;;;5.54;73.04
68179;BME280;69812;42.632;23.440;2024-02-04T02:35:17;95472.41;;;5.66;72.56
68179;BME280;69812;42.632;23.440;2024-02-04T02:40:29;95466.97;;;6.00;70.51
68179;BME280;69812;42.632;23.440;2024-02-04T02:42:57;95443.44;;;6.09;70.31
68179;BME280;69812;42.632;23.440;2024-02-04T02:45:23;95457.19;;;6.06;70.57
68179;BME280;69812;42.632;23.440;2024-02-04T02:47:51;95431.03;;;6.17;69.68
68179;BME280;69812;42.632;23.440;2024-02-04T02:50:20;95428.47;;;6.17;69.92
68179;BME280;69812;42.632;23.440;2024-02-04T02:52:45;95438.78;;;6.15;69.62
68179;BME280;69812;42.632;23.440;2024-02-04T02:55:11;95451.84;;;6.24;69.37
68179;BME280;69812;42.632;23.440;2024-02-04T02:57:36;95459.44;;;6.38;68.93
68179;BME280;69812;42.632;23.440;2024-02-04T03:00:02;95439.13;;;6.36;68.76
68179;BME280;69812;42.632;23.440;2024-02-04T03:02:28;95427.31;;;6.35;68.43
68179;BME280;69812;42.632;23.440;2024-02-04T03:04:54;95445.84;;;6.50;68.08
68179;BME280;69812;42.632;23.440;2024-02-04T03:07:19;95446.56;;;6.52;67.95
68179;BME280;69812;42.632;23.440;2024-02-04T03:09:45;95453.66;;;6.62;67.47
68179;BME280;69812;42.632;23.440;2024-02-04T03:12:11;95453.31;;;6.53;67.74
68179;BME280;69812;42.632;23.440;2024-02-04T03:14:36;95452.41;;;6.80;66.89
68179;BME280;69812;42.632;23.440;2024-02-04T03:17:02;95449.34;;;6.62;67.25
68179;BME280;69812;42.632;23.440;2024-02-04T03:19:27;95430.47;;;6.77;66.31
68179;BME280;69812;42.632;23.440;2024-02-04T03:21:52;95438.03;;;6.79;66.67
68179;BME280;69812;42.632;23.440;2024-02-04T03:24:20;95435.34;;;6.81;66.51
68179;BME280;69812;42.632;23.440;2024-02-04T03:26:46;95433.03;;;6.90;66.23
68179;BME280;69812;42.632;23.440;2024-02-04T03:29:11;95450.34;;;6.98;66.23
68179;BME280;69812;42.632;23.440;2024-02-04T03:31:37;95427.38;;;6.98;66.08
68179;BME280;69812;42.632;23.440;2024-02-04T03:34:02;95431.19;;;6.92;65.70
68179;BME280;69812;42.632;23.440;2024-02-04T03:36:28;95430.88;;;6.97;65.92
68179;BME280;69812;42.632;23.440;2024-02-04T03:38:53;95424.16;;;6.83;65.74
68179;BME280;69812;42.632;23.440;2024-02-04T03:41:19;95429.84;;;6.87;65.69
68179;BME280;69812;42.632;23.440;2024-02-04T03:43:44;95442.91;;;6.69;65.60
68179;BME280;69812;42.632;23.440;2024-02-04T03:46:14;95439.06;;;6.11;66.10
68179;BME280;69812;42.632;23.440;2024-02-04T03:48:39;95439.06;;;5.56;67.78
68179;BME280;69812;42.632;23.440;2024-02-04T03:51:05;95418.44;;;4.77;69.87
68179;BME280;69812;42.632;23.440;2024-02-04T03:53:30;95418.63;;;4.45;71.06
68179;BME280;69812;42.632;23.440;2024-02-04T03:55:58;95425.06;;;4.36;72.97
68179;BME280;69812;42.632;23.440;2024-02-04T03:58:28;95430.97;;;4.06;74.00
68179;BME280;69812;42.632;23.440;2024-02-04T04:00:59;95406.88;;;3.67;74.74
68179;BME280;69812;42.632;23.440;2024-02-04T04:03:25;95430.41;;;3.71;75.61
68179;BME280;69812;42.632;23.440;2024-02-04T04:05:53;95438.13;;;3.54;75.49
68179;BME280;69812;42.632;23.440;2024-02-04T04:08:19;95432.59;;;3.14;77.19
68179;BME280;69812;42.632;23.440;2024-02-04T04:10:45;95439.78;;;3.05;77.31
68179;BME280;69812;42.632;23.440;2024-02-04T04:13:11;95443.59;;;2.81;78.25
68179;BME280;69812;42.632;23.440;2024-02-04T04:15:37;95437.78;;;2.45;79.46
68179;BME280;69812;42.632;23.440;2024-02-04T04:18:04;95441.59;;;2.37;79.72
68179;BME280;69812;42.632;23.440;2024-02-04T04:20:29;95440.47;;;2.08;80.56
68179;BME280;69812;42.632;23.440;2024-02-04T04:22:55;95428.78;;;2.05;81.74
68179;BME280;69812;42.632;23.440;2024-02-04T04:25:20;95435.03;;;2.50;85.47
68179;BME280;69812;42.632;23.440;2024-02-04T04:27:46;95427.59;;;2.96;86.38
68179;BME280;69812;42.632;23.440;2024-02-04T04:30:11;95432.69;;;3.60;84.04
68179;BME280;69812;42.632;23.440;2024-02-04T04:32:37;95422.53;;;3.60;79.65
68179;BME280;69812;42.632;23.440;2024-02-04T04:35:03;95423.69;;;3.38;80.16
68179;BME280;69812;42.632;23.440;2024-02-04T04:37:28;95435.09;;;3.93;81.14
68179;BME280;69812;42.632;23.440;2024-02-04T04:39:54;95459.13;;;4.18;80.49
68179;BME280;69812;42.632;23.440;2024-02-04T04:42:19;95459.91;;;4.04;77.28
68179;BME280;69812;42.632;23.440;2024-02-04T04:44:45;95462.91;;;4.10;76.84
68179;BME280;69812;42.632;23.440;2024-02-04T04:47:10;95454.50;;;3.94;77.00
68179;BME280;69812;42.632;23.440;2024-02-04T04:49:36;95457.63;;;3.83;77.35
68179;BME280;69812;42.632;23.440;2024-02-04T04:52:03;95445.25;;;3.77;77.81
68179;BME280;69812;42.632;23.440;2024-02-04T04:54:29;95449.38;;;3.80;77.67
68179;BME280;69812;42.632;23.440;2024-02-04T04:56:54;95444.16;;;3.67;77.34
68179;BME280;69812;42.632;23.440;2024-02-04T04:59:20;95434.84;;;3.52;78.61
68179;BME280;69812;42.632;23.440;2024-02-04T05:01:46;95440.06;;;3.48;78.39
68179;BME280;69812;42.632;23.440;2024-02-04T05:04:12;95442.38;;;3.37;78.80
68179;BME280;69812;42.632;23.440;2024-02-04T05:06:37;95445.47;;;3.42;79.29
68179;BME280;69812;42.632;23.440;2024-02-04T05:09:03;95444.25;;;3.49;79.48
68179;BME280;69812;42.632;23.440;2024-02-04T05:11:28;95430.97;;;3.44;80.47
68179;BME280;69812;42.632;23.440;2024-02-04T05:13:54;95434.97;;;3.80;80.09
68179;BME280;69812;42.632;23.440;2024-02-04T05:16:20;95420.53;;;4.11;80.98
68179;BME280;69812;42.632;23.440;2024-02-04T05:18:45;95417.38;;;4.66;78.92
68179;BME280;69812;42.632;23.440;2024-02-04T05:21:11;95434.06;;;4.99;76.89
68179;BME280;69812;42.632;23.440;2024-02-04T05:23:37;95439.63;;;5.47;75.44
68179;BME280;69812;42.632;23.440;2024-02-04T05:26:05;95431.28;;;5.72;74.01
68179;BME280;69812;42.632;23.440;2024-02-04T05:28:31;95432.09;;;5.73;73.61
68179;BME280;69812;42.632;23.440;2024-02-04T05:30:57;95447.22;;;5.89;73.13
68179;BME280;69812;42.632;23.440;2024-02-04T05:33:22;95449.25;;;6.11;71.28
68179;BME280;69812;42.632;23.440;2024-02-04T05:35:48;95455.97;;;5.85;71.61
68179;BME280;69812;42.632;23.440;2024-02-04T05:38:13;95438.41;;;5.53;72.45
68179;BME280;69812;42.632;23.440;2024-02-04T05:40:39;95441.66;;;5.42;72.85
68179;BME280;69812;42.632;23.440;2024-02-04T05:43:05;95456.53;;;5.48;73.06
68179;BME280;69812;42.632;23.440;2024-02-04T05:45:33;95445.25;;;5.52;72.76
68179;BME280;69812;42.632;23.440;2024-02-04T05:48:01;95439.00;;;5.44;72.86
68179;BME280;69812;42.632;23.440;2024-02-04T05:50:26;95445.69;;;5.59;72.07
68179;BME280;69812;42.632;23.440;2024-02-04T05:52:51;95447.53;;;5.84;72.27
68179;BME280;69812;42.632;23.440;2024-02-04T05:55:17;95448.94;;;6.03;71.26
68179;BME280;69812;42.632;23.440;2024-02-04T05:57:42;95432.97;;;5.86;71.22
68179;BME280;69812;42.632;23.440;2024-02-04T06:00:09;95443.16;;;5.86;71.72
68179;BME280;69812;42.632;23.440;2024-02-04T06:02:37;95447.16;;;6.30;70.28
68179;BME280;69812;42.632;23.440;2024-02-04T06:05:02;95439.50;;;6.30;69.72
68179;BME280;69812;42.632;23.440;2024-02-04T06:07:28;95446.16;;;6.46;69.10
68179;BME280;69812;42.632;23.440;2024-02-04T06:09:54;95455.66;;;6.56;68.01
68179;BME280;69812;42.632;23.440;2024-02-04T06:12:24;95473.63;;;6.15;68.59
68179;BME280;69812;42.632;23.440;2024-02-04T06:14:50;95462.78;;;5.57;69.49
68179;BME280;69812;42.632;23.440;2024-02-04T06:17:18;95485.13;;;5.25;71.14
68179;BME280;69812;42.632;23.440;2024-02-04T06:19:46;95480.69;;;5.14;71.94
68179;BME280;69812;42.632;23.440;2024-02-04T06:22:11;95494.03;;;4.89;72.74
68179;BME280;69812;42.632;23.440;2024-02-04T06:24:37;95508.44;;;4.74;73.21
68179;BME280;69812;42.632;23.440;2024-02-04T06:27:04;95491.25;;;4.49;74.56
68179;BME280;69812;42.632;23.440;2024-02-04T06:29:30;95501.41;;;4.49;74.75
68179;BME280;69812;42.632;23.440;2024-02-04T06:31:55;95512.22;;;4.52;75.08
68179;BME280;69812;42.632;23.440;2024-02-04T06:34:21;95514.03;;;4.95;73.87
68179;BME280;69812;42.632;23.440;2024-02-04T06:36:46;95515.75;;;5.23;72.52
68179;BME280;69812;42.632;23.440;2024-02-04T06:39:13;95520.09;;;5.07;72.95
68179;BME280;69812;42.632;23.440;2024-02-04T06:41:38;95508.09;;;5.38;72.15
68179;BME280;69812;42.632;23.440;2024-02-04T06:44:04;95505.47;;;5.53;71.86
68179;BME280;69812;42.632;23.440;2024-02-04T06:46:30;95516.31;;;5.70;70.71
68179;BME280;69812;42.632;23.440;2024-02-04T06:48:56;95512.56;;;5.90;70.31
68179;BME280;69812;42.632;23.440;2024-02-04T06:51:21;95502.78;;;6.11;69.63
68179;BME280;69812;42.632;23.440;2024-02-04T06:53:47;95507.19;;;6.49;68.96
68179;BME280;69812;42.632;23.440;2024-02-04T06:56:13;95499.75;;;6.97;67.33
68179;BME280;69812;42.632;23.440;2024-02-04T06:58:39;95482.38;;;7.40;65.85
68179;BME280;69812;42.632;23.440;2024-02-04T07:01:06;95498.53;;;7.65;64.26
68179;BME280;69812;42.632;23.440;2024-02-04T07:03:32;95497.72;;;7.65;64.32
68179;BME280;69812;42.632;23.440;2024-02-04T07:06:00;95499.63;;;7.74;64.18
68179;BME280;69812;42.632;23.440;2024-02-04T07:08:26;95466.44;;;7.74;63.91
68179;BME280;69812;42.632;23.440;2024-02-04T07:10:52;95509.16;;;7.72;64.17
68179;BME280;69812;42.632;23.440;2024-02-04T07:13:18;95516.19;;;7.81;63.86
68179;BME280;69812;42.632;23.440;2024-02-04T07:15:45;95480.19;;;7.84;63.35
68179;BME280;69812;42.632;23.440;2024-02-04T07:18:11;95503.97;;;7.97;62.76
68179;BME280;69812;42.632;23.440;2024-02-04T07:20:37;95487.00;;;7.96;62.55
68179;BME280;69812;42.632;23.440;2024-02-04T07:23:02;95488.56;;;7.86;62.83
68179;BME280;69812;42.632;23.440;2024-02-04T07:25:28;95448.72;;;7.84;63.00
68179;BME280;69812;42.632;23.440;2024-02-04T07:27:54;95498.41;;;8.03;62.56
68179;BME280;69812;42.632;23.440;2024-02-04T07:30:20;95493.97;;;8.18;62.24
68179;BME280;69812;42.632;23.440;2024-02-04T07:32:46;95497.31;;;8.19;62.27
68179;BME280;69812;42.632;23.440;2024-02-04T07:35:11;95485.53;;;8.29;61.61
68179;BME280;69812;42.632;23.440;2024-02-04T07:37:37;95487.38;;;8.27;61.59
68179;BME280;69812;42.632;23.440;2024-02-04T07:40:03;95500.19;;;8.62;60.72
68179;BME280;69812;42.632;23.440;2024-02-04T07:42:30;95513.84;;;8.74;60.06
68179;BME280;69812;42.632;23.440;2024-02-04T07:44:56;95499.50;;;8.72;60.11
68179;BME280;69812;42.632;23.440;2024-02-04T07:47:21;95508.75;;;8.86;59.65
68179;BME280;69812;42.632;23.440;2024-02-04T07:49:48;95486.59;;;8.62;59.91
68179;BME280;69812;42.632;23.440;2024-02-04T07:52:18;95511.97;;;8.41;60.65
68179;BME280;69812;42.632;23.440;2024-02-04T07:54:43;95507.84;;;8.51;60.55
68179;BME280;69812;42.632;23.440;2024-02-04T07:57:09;95521.53;;;8.74;59.49
68179;BME280;69812;42.632;23.440;2024-02-04T07:59:35;95501.22;;;8.60;59.63
68179;BME280;69812;42.632;23.440;2024-02-04T08:02:03;95500.53;;;8.58;59.33
68179;BME280;69812;42.632;23.440;2024-02-04T08:04:29;95508.28;;;8.45;59.61
68179;BME280;69812;42.632;23.440;2024-02-04T08:06:55;95517.56;;;8.81;59.42
68179;BME280;69812;42.632;23.440;2024-02-04T08:09:20;95523.22;;;9.32;57.63
68179;BME280;69812;42.632;23.440;2024-02-04T08:11:46;95505.94;;;9.00;57.75
68179;BME280;69812;42.632;23.440;2024-02-04T08:14:12;95520.31;;;9.48;56.85
68179;BME280;69812;42.632;23.440;2024-02-04T08:16:39;95516.91;;;9.58;55.74
68179;BME280;69812;42.632;23.440;2024-02-04T08:19:04;95510.66;;;9.40;56.42
68179;BME280;69812;42.632;23.440;2024-02-04T08:21:32;95503.06;;;9.50;56.04
68179;BME280;69812;42.632;23.440;2024-02-04T08:23:57;95490.50;;;9.46;55.46
68179;BME280;69812;42.632;23.440;2024-02-04T08:26:23;95492.03;;;9.38;55.72
68179;BME280;69812;42.632;23.440;2024-02-04T08:28:49;95502.03;;;9.63;55.20
68179;BME280;69812;42.632;23.440;2024-02-04T08:31:14;95501.41;;;9.71;54.63
68179;BME280;69812;42.632;23.440;2024-02-04T08:33:40;95502.34;;;9.81;54.07
68179;BME280;69812;42.632;23.440;2024-02-04T08:36:05;95507.63;;;9.46;55.09
68179;BME280;69812;42.632;23.440;2024-02-04T08:38:32;95515.50;;;9.77;54.83
68179;BME280;69812;42.632;23.440;2024-02-04T08:40:57;95494.09;;;9.55;55.03
68179;BME280;69812;42.632;23.440;2024-02-04T08:43:22;95497.72;;;9.30;55.45
68179;BME280;69812;42.632;23.440;2024-02-04T08:45:48;95488.41;;;9.29;55.36
68179;BME280;69812;42.632;23.440;2024-02-04T08:48:16;95492.25;;;9.01;56.24
68179;BME280;69812;42.632;23.440;2024-02-04T08:50:41;95483.66;;;9.13;55.95
68179;BME280;69812;42.632;23.440;2024-02-04T08:53:07;95499.94;;;9.23;56.15
68179;BME280;69812;42.632;23.440;2024-02-04T08:55:34;95496.22;;;9.50;55.37
68179;BME280;69812;42.632;23.440;2024-02-04T08:58:00;95493.88;;;9.36;56.13
68179;BME280;69812;42.632;23.440;2024-02-04T09:00:25;95495.59;;;9.58;55.72
68179;BME280;69812;42.632;23.440;2024-02-04T09:02:51;95487.66;;;9.83;54.23
68179;BME280;69812;42.632;23.440;2024-02-04T09:05:18;95481.06;;;9.70;54.29
68179;BME280;69812;42.632;23.440;2024-02-04T09:07:45;95505.94;;;9.90;54.10
68179;BME280;69812;42.632;23.440;2024-02-04T09:10:10;95485.13;;;9.72;54.45
68179;BME280;69812;42.632;23.440;2024-02-04T09:12:36;95525.81;;;10.09;54.25
68179;BME280;69812;42.632;23.440;2024-02-04T09:15:01;95508.63;;;9.77;54.68
68179;BME280;69812;42.632;23.440;2024-02-04T09:17:30;95512.91;;;9.99;54.42
68179;BME280;69812;42.632;23.440;2024-02-04T09:19:58;95539.03;;;9.93;54.35
68179;BME280;69812;42.632;23.440;2024-02-04T09:22:23;95511.41;;;9.85;54.42
68179;BME280;69812;42.632;23.440;2024-02-04T09:24:49;95510.63;;;9.62;54.83
68179;BME280;69812;42.632;23.440;2024-02-04T09:27:14;95518.94;;;9.43;55.60
68179;BME280;69812;42.632;23.440;2024-02-04T09:29:39;95523.47;;;9.29;56.04
68179;BME280;69812;42.632;23.440;2024-02-04T09:32:05;95534.63;;;9.28;56.30
68179;BME280;69812;42.632;23.440;2024-02-04T09:34:34;95541.34;;;9.06;57.05
68179;BME280;69812;42.632;23.440;2024-02-04T09:36:59;95537.25;;;8.92;57.10
68179;BME280;69812;42.632;23.440;2024-02-04T09:39:27;95530.88;;;8.98;57.19
68179;BME280;69812;42.632;23.440;2024-02-04T09:41:53;95529.25;;;9.19;56.70
68179;BME280;69812;42.632;23.440;2024-02-04T09:44:19;95532.09;;;9.50;56.22
68179;BME280;69812;42.632;23.440;2024-02-04T09:46:45;95525.78;;;9.65;56.02
68179;BME280;69812;42.632;23.440;2024-02-04T09:49:12;95529.19;;;10.10;54.64
68179;BME280;69812;42.632;23.440;2024-02-04T09:51:39;95527.13;;;10.47;54.08
68179;BME280;69812;42.632;23.440;2024-02-04T09:54:05;95532.16;;;10.69;53.49
68179;BME280;69812;42.632;23.440;2024-02-04T09:56:35;95530.13;;;10.84;53.15
68179;BME280;69812;42.632;23.440;2024-02-04T09:59:02;95519.50;;;10.57;53.85
68179;BME280;69812;42.632;23.440;2024-02-04T10:01:28;95525.41;;;10.68;53.53
68179;BME280;69812;42.632;23.440;2024-02-04T10:03:54;95520.75;;;10.62;53.47
68179;BME280;69812;42.632;23.440;2024-02-04T10:06:19;95500.75;;;10.56;53.38
68179;BME280;69812;42.632;23.440;2024-02-04T10:08:47;95504.72;;;10.49;53.95
68179;BME280;69812;42.632;23.440;2024-02-04T10:11:13;95504.13;;;10.57;53.62
68179;BME280;69812;42.632;23.440;2024-02-04T10:13:49;95523.56;;;10.27;55.05
68179;BME280;69812;42.632;23.440;2024-02-04T10:16:15;95521.47;;;10.32;55.09
68179;BME280;69812;42.632;23.440;2024-02-04T10:18:45;95517.19;;;10.54;54.66
68179;BME280;69812;42.632;23.440;2024-02-04T10:21:18;95514.34;;;10.89;54.43
68179;BME280;69812;42.632;23.440;2024-02-04T10:23:44;95519.00;;;10.84;54.52
68179;BME280;69812;42.632;23.440;2024-02-04T10:26:12;95512.06;;;10.75;54.45
68179;BME280;69812;42.632;23.440;2024-02-04T10:28:38;95513.44;;;10.79;54.26
68179;BME280;69812;42.632;23.440;2024-02-04T10:31:04;95521.28;;;10.77;54.33
68179;BME280;69812;42.632;23.440;2024-02-04T10:33:30;95509.69;;;10.83;54.65
68179;BME280;69812;42.632;23.440;2024-02-04T10:35:56;95510.44;;;10.74;54.99
68179;BME280;69812;42.632;23.440;2024-02-04T10:38:21;95509.38;;;10.55;55.33
68179;BME280;69812;42.632;23.440;2024-02-04T10:40:48;95502.38;;;10.14;56.53
68179;BME280;69812;42.632;23.440;2024-02-04T10:43:17;95512.81;;;9.90;57.44
68179;BME280;69812;42.632;23.440;2024-02-04T10:45:43;95493.28;;;10.10;57.20
68179;BME280;69812;42.632;23.440;2024-02-04T10:48:11;95514.84;;;10.18;56.94
68179;BME280;69812;42.632;23.440;2024-02-04T10:50:37;95500.00;;;9.90;57.63
68179;BME280;69812;42.632;23.440;2024-02-04T10:53:09;95504.50;;;10.08;57.42
68179;BME280;69812;42.632;23.440;2024-02-04T10:55:41;95502.16;;;10.05;57.55
68179;BME280;69812;42.632;23.440;2024-02-04T10:58:07;95495.09;;;9.98;57.55
68179;BME280;69812;42.632;23.440;2024-02-04T11:00:34;95482.59;;;10.04;57.58
68179;BME280;69812;42.632;23.440;2024-02-04T11:03:00;95486.72;;;10.28;56.89
68179;BME280;69812;42.632;23.440;2024-02-04T11:05:28;95473.44;;;10.23;56.73
68179;BME280;69812;42.632;23.440;2024-02-04T11:07:54;95483.03;;;10.10;56.93
68179;BME280;69812;42.632;23.440;2024-02-04T11:10:21;95481.59;;;10.28;56.62
68179;BME280;69812;42.632;23.440;2024-02-04T11:12:48;95469.16;;;10.12;57.05
68179;BME280;69812;42.632;23.440;2024-02-04T11:15:15;95490.13;;;10.17;57.31
68179;BME280;69812;42.632;23.440;2024-02-04T11:18:00;95478.84;;;10.41;56.18
68179;BME280;69812;42.632;23.440;2024-02-04T11:20:56;95469.94;;;10.24;56.78
68179;BME280;69812;42.632;23.440;2024-02-04T11:26:04;95459.88;;;10.32;56.08
68179;BME280;69812;42.632;23.440;2024-02-04T11:28:30;95443.97;;;10.17;56.64
68179;BME280;69812;42.632;23.440;2024-02-04T11:30:58;95455.16;;;10.16;56.42
68179;BME280;69812;42.632;23.440;2024-02-04T11:33:24;95452.78;;;9.92;57.19
68179;BME280;69812;42.632;23.440;2024-02-04T11:36:02;95482.97;;;10.32;56.62
68179;BME280;69812;42.632;23.440;2024-02-04T11:38:32;95466.59;;;10.44;56.05
68179;BME280;69812;42.632;23.440;2024-02-04T11:40:58;95464.81;;;10.24;56.50
68179;BME280;69812;42.632;23.440;2024-02-04T11:43:24;95461.41;;;10.35;56.40
68179;BME280;69812;42.632;23.440;2024-02-04T11:45:54;95444.41;;;10.55;55.73
68179;BME280;69812;42.632;23.440;2024-02-04T11:48:19;95457.97;;;10.45;55.78
68179;BME280;69812;42.632;23.440;2024-02-04T11:50:52;95458.47;;;10.39;55.54
68179;BME280;69812;42.632;23.440;2024-02-04T11:53:18;95462.09;;;10.25;56.12
68179;BME280;69812;42.632;23.440;2024-02-04T11:55:44;95448.00;;;10.31;56.19
68179;BME280;69812;42.632;23.440;2024-02-04T11:58:11;95442.19;;;10.29;56.05
68179;BME280;69812;42.632;23.440;2024-02-04T12:00:37;95426.31;;;10.35;55.92
68179;BME280;69812;42.632;23.440;2024-02-04T12:03:08;95428.50;;;10.40;56.13
68179;BME280;69812;42.632;23.440;2024-02-04T12:05:35;95435.06;;;10.75;55.09
68179;BME280;69812;42.632;23.440;2024-02-04T12:08:03;95436.41;;;11.00;54.39
68179;BME280;69812;42.632;23.440;2024-02-04T12:10:30;95420.47;;;11.06;53.80
68179;BME280;69812;42.632;23.440;2024-02-04T12:12:59;95416.69;;;10.79;54.30
68179;BME280;69812;42.632;23.440;2024-02-04T12:15:25;95412.22;;;10.72;54.71
68179;BME280;69812;42.632;23.440;2024-02-04T12:17:50;95436.00;;;11.04;53.99
68179;BME280;69812;42.632;23.440;2024-02-04T12:20:16;95414.06;;;11.21;53.19
68179;BME280;69812;42.632;23.440;2024-02-04T12:22:43;95427.19;;;11.28;52.74
68179;BME280;69812;42.632;23.440;2024-02-04T12:25:08;95424.22;;;11.33;52.97
68179;BME280;69812;42.632;23.440;2024-02-04T12:27:34;95411.28;;;11.54;52.23
68179;BME280;69812;42.632;23.440;2024-02-04T12:30:00;95424.00;;;11.55;51.85
68179;BME280;69812;42.632;23.440;2024-02-04T12:32:25;95419.19;;;11.21;52.62
68179;BME280;69812;42.632;23.440;2024-02-04T12:34:58;95413.00;;;11.34;52.21
68179;BME280;69812;42.632;23.440;2024-02-04T12:37:23;95423.25;;;11.34;52.17
68179;BME280;69812;42.632;23.440;2024-02-04T12:39:49;95409.78;;;11.41;51.92
68179;BME280;69812;42.632;23.440;2024-02-04T12:42:17;95389.50;;;11.48;51.34
68179;BME280;69812;42.632;23.440;2024-02-04T12:44:49;95405.56;;;11.30;51.77
68179;BME280;69812;42.632;23.440;2024-02-04T12:47:19;95385.69;;;11.33;51.54
68179;BME280;69812;42.632;23.440;2024-02-04T12:49:45;95412.81;;;11.76;51.29
68179;BME280;69812;42.632;23.440;2024-02-04T12:52:10;95397.69;;;11.92;49.90
68179;BME280;69812;42.632;23.440;2024-02-04T12:54:45;95386.97;;;11.87;49.66
68179;BME280;69812;42.632;23.440;2024-02-04T12:57:22;95399.84;;;11.87;49.93
68179;BME280;69812;42.632;23.440;2024-02-04T12:59:48;95381.66;;;11.59;50.01